createdAt,value
2023-03-23T15:58:20.827Z,11.60
2023-03-23T16:00:49.294Z,11.23
2023-03-23T16:03:19.528Z,11.40
2023-03-23T16:05:47.374Z,15.25
2023-03-23T16:08:16.676Z,13.23
2023-03-23T16:10:44.572Z,10.82
2023-03-23T16:13:12.221Z,11.63
2023-03-23T16:15:42.212Z,12.23
2023-03-23T16:18:16.137Z,14.07
2023-03-23T16:20:43.880Z,14.13
2023-03-23T16:23:11.672Z,10.93
2023-03-23T16:25:39.138Z,6.90
2023-03-23T16:28:07.220Z,9.75
2023-03-23T16:30:35.454Z,10.35
2023-03-23T16:33:04.367Z,7.60
2023-03-23T16:35:31.913Z,11.68
2023-03-23T16:38:07.972Z,7.53
2023-03-23T16:40:38.875Z,9.73
2023-03-23T16:43:09.249Z,7.20
2023-03-23T16:45:37.608Z,6.03
2023-03-23T16:48:08.116Z,7.65
2023-03-23T16:50:36.301Z,4.60
2023-03-23T16:53:04.002Z,6.03
2023-03-23T16:55:32.088Z,5.53
2023-03-23T16:58:12.835Z,4.35
2023-03-23T17:00:45.491Z,4.63
2023-03-23T17:03:16.279Z,7.33
2023-03-23T17:05:45.115Z,8.48
2023-03-23T17:08:12.979Z,5.35
2023-03-23T17:10:41.655Z,4.53
2023-03-23T17:13:14.026Z,5.20
2023-03-23T17:15:45.098Z,6.20
2023-03-23T17:18:16.032Z,6.38
2023-03-23T17:20:43.687Z,6.88
2023-03-23T17:23:11.492Z,8.15
2023-03-23T17:25:39.096Z,6.47
2023-03-23T17:28:07.254Z,5.43
2023-03-23T17:30:35.100Z,2.63
2023-03-23T17:33:03.004Z,7.95
2023-03-23T17:35:35.890Z,5.47
2023-03-23T17:38:03.744Z,4.40
2023-03-23T17:40:31.337Z,4.20
2023-03-23T17:42:58.979Z,5.85
2023-03-23T17:45:26.821Z,4.93
2023-03-23T17:47:54.394Z,4.05
2023-03-23T17:50:21.940Z,5.38
2023-03-23T17:52:51.222Z,5.50
2023-03-23T17:55:18.763Z,3.25
2023-03-23T17:57:46.388Z,6.50
2023-03-23T18:00:15.359Z,5.20
2023-03-23T18:02:42.961Z,4.18
2023-03-23T18:05:14.372Z,7.32
2023-03-23T18:07:42.100Z,4.40
2023-03-23T18:10:13.146Z,4.23
2023-03-23T18:12:41.567Z,4.28
2023-03-23T18:15:10.069Z,4.95
2023-03-23T18:17:37.989Z,5.50
2023-03-23T18:20:06.926Z,4.70
2023-03-23T18:22:34.647Z,4.70
2023-03-23T18:25:02.719Z,2.75
2023-03-23T18:27:31.923Z,2.70
2023-03-23T18:29:59.655Z,3.22
2023-03-23T18:32:27.759Z,2.60
2023-03-23T18:34:55.951Z,3.77
2023-03-23T18:37:23.614Z,1.00
2023-03-23T18:39:51.338Z,1.50
2023-03-23T18:42:18.935Z,1.27
2023-03-23T18:44:47.883Z,2.13
2023-03-23T18:47:15.554Z,2.27
2023-03-23T18:49:46.247Z,4.15
2023-03-23T18:52:13.897Z,2.55
2023-03-23T18:54:45.115Z,2.70
2023-03-23T18:57:12.894Z,3.17
2023-03-23T18:59:41.154Z,2.10
2023-03-23T19:02:11.570Z,2.88
2023-03-23T19:04:39.432Z,3.42
2023-03-23T19:07:07.551Z,5.35
2023-03-23T19:09:35.300Z,4.00
2023-03-23T19:12:02.910Z,5.87
2023-03-23T19:14:30.460Z,4.13
2023-03-23T19:16:57.940Z,3.67
2023-03-23T19:19:27.099Z,3.15
2023-03-23T19:21:55.256Z,3.65
2023-03-23T19:24:22.970Z,2.93
2023-03-23T19:26:50.719Z,4.72
2023-03-23T19:29:26.706Z,6.15
2023-03-23T19:31:57.492Z,12.03
2023-03-23T19:34:25.971Z,5.65
2023-03-23T19:37:03.150Z,4.93
2023-03-23T19:39:34.117Z,3.80
2023-03-23T19:42:01.742Z,4.18
2023-03-23T19:44:29.461Z,5.03
2023-03-23T19:46:57.696Z,5.53
2023-03-23T19:49:26.983Z,5.88
2023-03-23T19:52:09.005Z,5.63
2023-03-23T19:54:39.916Z,7.75
2023-03-23T19:57:08.799Z,3.90
2023-03-23T19:59:37.088Z,6.95
2023-03-23T20:02:05.351Z,4.80
2023-03-23T20:04:33.011Z,4.63
2023-03-23T20:07:02.796Z,5.88
2023-03-23T20:09:31.170Z,5.53
2023-03-23T20:11:59.006Z,3.57
2023-03-23T20:14:26.971Z,3.78
2023-03-23T20:16:54.970Z,2.85
2023-03-23T20:19:23.590Z,4.35
2023-03-23T20:21:52.334Z,3.58
2023-03-23T20:24:21.585Z,3.97
2023-03-23T20:26:49.816Z,4.68
2023-03-23T20:29:17.519Z,2.80
2023-03-23T20:31:46.542Z,3.40
2023-03-23T20:34:15.810Z,4.25
2023-03-23T20:36:45.022Z,4.80
2023-03-23T20:39:14.220Z,3.75
2023-03-23T20:41:44.166Z,3.45
2023-03-23T20:44:13.708Z,3.10
2023-03-23T20:46:42.499Z,3.55
2023-03-23T20:49:10.123Z,4.23
2023-03-23T20:51:37.756Z,5.38
2023-03-23T20:54:06.204Z,3.22
2023-03-23T20:56:34.079Z,3.08
2023-03-23T20:59:03.137Z,4.10
2023-03-23T21:01:33.186Z,5.13
2023-03-23T21:04:01.002Z,4.60
2023-03-23T21:06:29.145Z,3.80
2023-03-23T21:08:57.290Z,3.17
2023-03-23T21:11:25.661Z,3.35
2023-03-23T21:13:55.007Z,3.17
2023-03-23T21:16:24.863Z,5.22
2023-03-23T21:18:52.484Z,3.50
2023-03-23T21:21:20.138Z,3.05
2023-03-23T21:23:52.936Z,5.22
2023-03-23T21:26:27.140Z,2.63
2023-03-23T21:28:59.925Z,4.55
2023-03-23T21:31:31.622Z,6.05
2023-03-23T21:34:01.932Z,4.35
2023-03-23T21:36:30.820Z,5.15
2023-03-23T21:38:59.651Z,5.30
2023-03-23T21:41:30.001Z,8.80
2023-03-23T21:44:10.972Z,3.78
2023-03-23T21:46:40.571Z,5.65
2023-03-23T21:49:10.056Z,5.10
2023-03-23T21:51:38.327Z,4.97
2023-03-23T21:54:05.977Z,6.45
2023-03-23T21:56:37.604Z,8.45
2023-03-23T21:59:08.893Z,2.90
2023-03-23T22:01:37.631Z,6.30
2023-03-23T22:04:06.953Z,7.77
2023-03-23T22:06:34.817Z,6.68
2023-03-23T22:09:05.158Z,5.32
2023-03-23T22:11:32.882Z,6.55
2023-03-23T22:14:01.139Z,5.15
2023-03-23T22:16:29.359Z,13.20
2023-03-23T22:19:00.043Z,9.13
2023-03-23T22:21:30.154Z,6.55
2023-03-23T22:23:58.694Z,6.78
2023-03-23T22:26:27.180Z,8.05
2023-03-23T22:28:55.617Z,7.13
2023-03-23T22:31:26.020Z,6.97
2023-03-23T22:33:55.573Z,7.70
2023-03-23T22:36:24.243Z,8.20
2023-03-23T22:38:53.254Z,6.13
2023-03-23T22:41:22.331Z,6.03
2023-03-23T22:43:50.139Z,5.32
2023-03-23T22:46:20.513Z,14.43
2023-03-23T22:48:48.021Z,10.43
2023-03-23T22:51:16.540Z,5.90
2023-03-23T22:53:44.567Z,6.67
2023-03-23T22:56:13.481Z,7.22
2023-03-23T22:58:41.241Z,9.15
2023-03-23T23:01:12.483Z,7.82
2023-03-23T23:03:40.333Z,13.10
2023-03-23T23:06:08.755Z,8.63
2023-03-23T23:08:36.487Z,8.43
2023-03-23T23:11:04.705Z,6.85
2023-03-23T23:13:33.975Z,8.32
2023-03-23T23:16:02.534Z,9.27
2023-03-23T23:18:31.238Z,9.20
2023-03-23T23:21:00.089Z,11.52
2023-03-23T23:23:28.968Z,15.10
2023-03-23T23:25:57.172Z,13.27
2023-03-23T23:28:24.815Z,5.93
2023-03-23T23:30:53.969Z,13.63
2023-03-23T23:33:22.166Z,10.63
2023-03-23T23:35:50.366Z,7.05
2023-03-23T23:38:17.987Z,13.63
2023-03-23T23:40:46.648Z,6.85
2023-03-23T23:43:16.047Z,9.57
2023-03-23T23:45:44.025Z,5.13
2023-03-23T23:48:13.515Z,7.53
2023-03-23T23:50:41.705Z,6.88
2023-03-23T23:53:10.893Z,11.73
2023-03-23T23:55:40.165Z,7.90
2023-03-23T23:58:08.094Z,11.95
